Time;durP1;ratioP1;P1;durP2;ratioP2;P2;SDS_P1;SDS_P2;PMS_P1;PMS_P2;Temp;Humidity;BMP_temperature;BMP_pressure;BME280_temperature;BME280_humidity;BME280_pressure;Samples;Min_cycle;Max_cycle;Signal;HPM_P1;HPM_P2
2021/10/07 00:00:49;;;;;;;6.43;4.03;;;;;;;10.80;100.00;101147.19;5057934;28;20047;-55
2021/10/07 00:03:15;;;;;;;5.45;4.53;;;;;;;10.74;100.00;101144.75;5047825;28;20131;-54
2021/10/07 00:05:42;;;;;;;7.85;4.50;;;;;;;10.73;100.00;101147.44;5060663;28;20446;-53
2021/10/07 00:08:09;;;;;;;8.70;4.97;;;;;;;10.71;100.00;101149.28;5059617;28;20045;-57
2021/10/07 00:10:35;;;;;;;6.65;4.10;;;;;;;10.69;100.00;101143.19;5060944;28;20433;-53
2021/10/07 00:13:02;;;;;;;5.45;3.63;;;;;;;10.67;100.00;101142.38;5058030;28;20064;-53
2021/10/07 00:15:28;;;;;;;7.35;4.75;;;;;;;10.71;100.00;101151.94;5053563;28;20053;-53
2021/10/07 00:17:57;;;;;;;6.85;4.60;;;;;;;10.69;100.00;101146.72;5055847;28;20044;-54
2021/10/07 00:20:24;;;;;;;8.23;4.90;;;;;;;10.69;100.00;101144.06;5059702;28;20535;-53
2021/10/07 00:22:51;;;;;;;7.75;4.85;;;;;;;10.70;100.00;101144.94;5054448;28;20120;-53
2021/10/07 00:25:17;;;;;;;6.95;4.70;;;;;;;10.70;100.00;101148.44;5052693;28;20065;-54
2021/10/07 00:27:44;;;;;;;7.63;5.13;;;;;;;10.71;100.00;101150.16;5055268;28;20050;-53
2021/10/07 00:30:16;;;;;;;7.75;5.18;;;;;;;10.71;100.00;101150.16;5055847;28;20040;-52
2021/10/07 00:33:06;;;;;;;9.43;5.15;;;;;;;10.71;100.00;101157.22;5057813;28;20045;-52
2021/10/07 00:41:03;;;;;;;9.43;5.70;;;;;;;10.72;100.00;101159.81;5060616;28;20051;-52
2021/10/07 00:43:29;;;;;;;8.05;5.43;;;;;;;10.73;100.00;101164.22;5052313;28;20048;-52
2021/10/07 00:45:59;;;;;;;14.80;6.55;;;;;;;10.72;100.00;101165.13;5055549;28;20047;-53
2021/10/07 00:48:25;;;;;;;8.65;5.97;;;;;;;10.73;100.00;101166.84;5054872;28;20049;-53
2021/10/07 00:50:52;;;;;;;13.60;6.85;;;;;;;10.68;100.00;101158.22;5051398;28;20044;-53
2021/10/07 00:53:19;;;;;;;9.57;6.25;;;;;;;10.72;100.00;101166.91;5056091;28;20099;-52
2021/10/07 00:55:47;;;;;;;8.60;5.85;;;;;;;10.77;100.00;101171.13;5052759;28;20045;-52
2021/10/07 00:58:16;;;;;;;8.88;5.90;;;;;;;10.76;100.00;101173.84;5051139;28;20072;-55
2021/10/07 01:00:43;;;;;;;9.60;6.38;;;;;;;10.72;100.00;101170.41;5048407;28;20071;-52
2021/10/07 01:03:14;;;;;;;11.07;6.35;;;;;;;10.69;100.00;101170.56;5048649;28;20048;-52
2021/10/07 01:05:41;;;;;;;7.07;6.05;;;;;;;10.70;100.00;101168.78;5057810;28;20056;-53
2021/10/07 01:08:07;;;;;;;9.32;6.13;;;;;;;10.73;100.00;101169.50;5058518;28;20052;-53
2021/10/07 01:10:34;;;;;;;8.57;5.65;;;;;;;10.67;100.00;101150.34;5058079;28;20924;-51
2021/10/07 01:13:01;;;;;;;10.98;6.43;;;;;;;10.59;100.00;101142.63;5056997;28;20052;-54
2021/10/07 01:15:28;;;;;;;9.32;6.07;;;;;;;10.74;100.00;101173.88;5057741;28;20055;-52
2021/10/07 01:17:54;;;;;;;10.63;6.50;;;;;;;10.75;100.00;101172.09;5053343;28;20063;-54
2021/10/07 01:20:22;;;;;;;9.05;6.03;;;;;;;10.70;100.00;101174.94;5061210;28;20557;-55
2021/10/07 01:22:48;;;;;;;8.82;6.47;;;;;;;10.74;100.00;101173.88;5059197;28;20044;-54
2021/10/07 01:25:15;;;;;;;12.90;6.15;;;;;;;10.74;100.00;101173.03;5063588;28;20059;-53
2021/10/07 01:27:41;;;;;;;8.77;5.95;;;;;;;10.73;100.00;101176.59;5054772;28;20044;-54
2021/10/07 01:30:12;;;;;;;13.77;6.15;;;;;;;10.64;100.00;101161.91;5058684;28;20047;-54
2021/10/07 01:32:41;;;;;;;10.05;5.43;;;;;;;10.74;100.00;101175.66;5056237;28;20048;-52
2021/10/07 01:35:09;;;;;;;8.32;5.72;;;;;;;10.74;100.00;101180.97;5058653;28;20775;-52
2021/10/07 01:37:36;;;;;;;10.80;6.47;;;;;;;10.75;100.00;101170.31;5062736;28;20048;-54
2021/10/07 01:40:08;;;;;;;13.90;6.35;;;;;;;10.74;100.00;101171.25;5064593;28;20064;-53
2021/10/07 01:42:37;;;;;;;8.85;6.60;;;;;;;10.71;100.00;101160.75;5059891;28;20090;-56
2021/10/07 01:45:05;;;;;;;9.43;6.45;;;;;;;10.75;100.00;101167.66;5060130;28;20059;-52
2021/10/07 01:47:32;;;;;;;11.55;6.57;;;;;;;10.72;100.00;101172.19;5059454;28;20044;-52
2021/10/07 01:49:58;;;;;;;11.73;6.75;;;;;;;10.71;100.00;101171.34;5061080;28;20045;-54
2021/10/07 01:52:25;;;;;;;12.90;6.82;;;;;;;10.66;100.00;101168.00;5057212;28;20075;-52
2021/10/07 01:54:51;;;;;;;9.10;6.75;;;;;;;10.71;100.00;101179.28;5061241;28;20055;-54
2021/10/07 01:57:17;;;;;;;10.70;6.50;;;;;;;10.69;100.00;101177.63;5056459;28;20055;-54
2021/10/07 01:59:44;;;;;;;9.98;6.38;;;;;;;10.66;100.00;101175.94;5059768;28;20048;-54
2021/10/07 02:02:10;;;;;;;10.70;6.07;;;;;;;10.67;100.00;101185.63;5058560;28;20052;-53
2021/10/07 02:04:37;;;;;;;10.25;6.35;;;;;;;10.68;100.00;101189.16;5062807;28;20040;-53
2021/10/07 02:07:04;;;;;;;11.80;6.30;;;;;;;10.66;100.00;101193.63;5061501;28;20040;-53
2021/10/07 02:09:30;;;;;;;7.78;5.85;;;;;;;10.66;100.00;101191.84;5059137;28;20052;-54
2021/10/07 02:11:57;;;;;;;10.27;6.15;;;;;;;10.62;100.00;101194.66;5059142;28;20517;-54
2021/10/07 02:14:24;;;;;;;9.20;6.32;;;;;;;10.59;100.00;101198.25;5063215;28;20063;-53
2021/10/07 02:16:51;;;;;;;9.25;5.60;;;;;;;10.57;100.00;101197.44;5058106;28;20048;-54
2021/10/07 02:19:18;;;;;;;9.77;6.65;;;;;;;10.54;100.00;101197.56;5057217;28;20151;-54
2021/10/07 02:21:45;;;;;;;9.60;5.90;;;;;;;10.53;100.00;101195.84;5056918;28;20055;-54
2021/10/07 02:24:11;;;;;;;9.80;6.07;;;;;;;10.55;100.00;101201.91;5056339;28;20049;-56
2021/10/07 02:26:38;;;;;;;9.63;6.13;;;;;;;10.53;100.00;101204.66;5056255;28;20050;-53
2021/10/07 02:29:06;;;;;;;7.88;5.53;;;;;;;10.52;100.00;101202.06;5061059;28;20051;-52
2021/10/07 02:31:32;;;;;;;9.02;6.50;;;;;;;10.53;100.00;101201.13;5061063;28;20051;-53
2021/10/07 02:33:59;;;;;;;8.55;5.57;;;;;;;10.54;100.00;101203.72;5058208;28;20133;-56
2021/10/07 02:36:26;;;;;;;8.77;6.00;;;;;;;10.59;100.00;101195.59;5060704;28;20053;-54
2021/10/07 02:38:52;;;;;;;7.53;5.60;;;;;;;10.61;100.00;101203.50;5064418;28;20048;-54
2021/10/07 02:41:19;;;;;;;11.00;5.78;;;;;;;10.44;100.00;101175.81;5058602;28;20047;-53
2021/10/07 02:43:45;;;;;;;10.80;5.60;;;;;;;10.59;100.00;101210.63;5056505;28;20055;-52
2021/10/07 02:46:12;;;;;;;6.50;5.60;;;;;;;10.56;100.00;101208.94;5057118;28;20482;-55
2021/10/07 02:48:39;;;;;;;9.25;5.97;;;;;;;10.55;100.00;101201.91;5056713;28;20047;-54
2021/10/07 02:51:05;;;;;;;8.77;5.57;;;;;;;10.53;100.00;101211.72;5061645;28;21237;-52
2021/10/07 02:53:32;;;;;;;9.50;6.40;;;;;;;10.52;100.00;101205.56;5054424;28;20048;-54
2021/10/07 02:55:59;;;;;;;10.40;5.97;;;;;;;10.51;100.00;101218.84;5056663;28;20055;-53
2021/10/07 02:58:26;;;;;;;12.73;6.80;;;;;;;10.51;100.00;101210.91;5054679;28;20651;-54
2021/10/07 03:00:52;;;;;;;10.30;6.60;;;;;;;10.52;100.00;101215.28;5064248;28;20044;-52
2021/10/07 03:03:19;;;;;;;8.38;6.47;;;;;;;10.54;100.00;101210.81;5060486;28;20071;-54
2021/10/07 03:05:46;;;;;;;11.45;7.10;;;;;;;10.52;100.00;101208.22;5069974;28;20048;-53
2021/10/07 03:08:13;;;;;;;10.45;6.57;;;;;;;10.51;100.00;101211.78;5072762;28;20115;-53
2021/10/07 03:10:39;;;;;;;12.30;7.25;;;;;;;10.55;100.00;101226.63;5065873;28;20041;-52
2021/10/07 03:13:06;;;;;;;13.60;7.57;;;;;;;10.61;100.00;101222.91;5068586;28;20044;-53
2021/10/07 03:15:32;;;;;;;13.57;7.10;;;;;;;10.49;100.00;101205.66;5072745;28;20052;-55
2021/10/07 03:17:59;;;;;;;11.02;6.65;;;;;;;10.62;100.00;101229.94;5071415;28;20051;-54
2021/10/07 03:20:26;;;;;;;10.55;7.10;;;;;;;10.63;100.00;101228.16;5055418;28;20139;-52
2021/10/07 03:22:53;;;;;;;15.15;7.10;;;;;;;10.62;100.00;101227.28;5065185;28;20382;-53
2021/10/07 03:25:21;;;;;;;9.55;7.30;;;;;;;10.59;100.00;101226.53;5060530;28;20520;-53
2021/10/07 03:27:47;;;;;;;11.30;7.63;;;;;;;10.58;100.00;101235.38;5058100;28;20509;-53
2021/10/07 03:30:14;;;;;;;12.90;7.10;;;;;;;10.59;100.00;101248.56;5056959;28;20514;-55
2021/10/07 03:32:41;;;;;;;12.13;7.38;;;;;;;10.62;100.00;101247.63;5056219;28;20044;-54
2021/10/07 03:35:08;;;;;;;11.52;7.85;;;;;;;10.62;100.00;101250.25;5055190;28;20048;-54
2021/10/07 03:37:37;;;;;;;12.63;8.02;;;;;;;10.62;100.00;101251.13;5059522;28;20048;-54
2021/10/07 03:40:07;;;;;;;11.20;7.32;;;;;;;10.69;100.00;101251.81;5058469;28;20139;-53
2021/10/07 03:42:33;;;;;;;10.95;7.70;;;;;;;10.69;100.00;101257.97;5057581;28;20040;-51
2021/10/07 03:45:03;;;;;;;10.27;7.47;;;;;;;10.73;100.00;101267.53;5054331;28;20045;-54
2021/10/07 03:47:30;;;;;;;9.20;7.03;;;;;;;10.71;100.00;101263.19;5057232;28;20074;-53
2021/10/07 03:49:57;;;;;;;12.63;8.63;;;;;;;10.70;100.00;101265.00;5054187;28;20484;-55
2021/10/07 03:52:24;;;;;;;11.20;8.45;;;;;;;10.70;100.00;101259.69;5060678;28;20484;-53
2021/10/07 03:54:52;;;;;;;11.13;7.10;;;;;;;10.70;100.00;101266.78;5054019;28;20136;-53
2021/10/07 03:57:19;;;;;;;13.25;8.75;;;;;;;10.69;100.00;101259.75;5056547;28;20068;-54
2021/10/07 03:59:46;;;;;;;13.25;8.75;;;;;;;10.66;100.00;101266.00;5055708;28;20528;-53
2021/10/07 04:02:12;;;;;;;14.80;8.48;;;;;;;10.64;100.00;101267.84;5054648;28;21215;-54
2021/10/07 04:04:39;;;;;;;13.80;9.07;;;;;;;10.64;100.00;101274.91;5050560;28;20391;-55
2021/10/07 04:07:05;;;;;;;14.18;9.13;;;;;;;10.51;100.00;101253.28;5055382;28;20059;-51
2021/10/07 04:09:32;;;;;;;14.98;9.27;;;;;;;10.63;100.00;101275.84;5051609;28;20418;-54
2021/10/07 04:11:58;;;;;;;16.88;9.65;;;;;;;10.61;100.00;101275.88;5052801;28;20056;-54
2021/10/07 04:14:25;;;;;;;14.48;10.18;;;;;;;10.62;100.00;101280.25;5053090;28;20055;-55
2021/10/07 04:16:51;;;;;;;14.25;9.43;;;;;;;10.63;100.00;101289.06;5053207;28;20044;-54
2021/10/07 04:19:19;;;;;;;14.15;9.52;;;;;;;10.63;100.00;101289.94;5056692;28;20045;-52
2021/10/07 04:21:46;;;;;;;13.30;8.75;;;;;;;10.65;100.00;101290.75;5061330;28;20044;-52
2021/10/07 04:24:13;;;;;;;15.02;9.80;;;;;;;10.67;100.00;101294.22;5055961;28;20059;-54
2021/10/07 04:26:40;;;;;;;15.13;8.73;;;;;;;10.66;100.00;101292.50;5052618;28;20079;-52
2021/10/07 04:29:06;;;;;;;12.27;9.30;;;;;;;10.66;100.00;101286.34;5053444;28;20051;-52
2021/10/07 04:31:33;;;;;;;13.93;9.18;;;;;;;10.58;100.00;101272.47;5055987;28;20056;-53
2021/10/07 04:34:00;;;;;;;12.20;8.95;;;;;;;10.71;100.00;101290.53;5052530;28;20072;-54
2021/10/07 04:36:26;;;;;;;10.85;8.18;;;;;;;10.70;100.00;101298.56;5058713;28;20060;-53
2021/10/07 04:38:53;;;;;;;13.18;9.18;;;;;;;10.73;100.00;101301.97;5053795;28;20163;-53
2021/10/07 04:41:19;;;;;;;12.02;9.00;;;;;;;10.68;100.00;101298.63;5056534;28;20051;-54
2021/10/07 04:43:46;;;;;;;13.27;8.85;;;;;;;10.64;100.00;101291.69;5051529;28;20068;-54
2021/10/07 04:46:12;;;;;;;15.75;8.85;;;;;;;10.61;100.00;101288.25;5053083;28;20048;-54
2021/10/07 04:48:39;;;;;;;16.88;9.65;;;;;;;10.53;100.00;101292.03;5057062;28;20044;-54
2021/10/07 04:51:05;;;;;;;14.05;9.85;;;;;;;10.50;100.00;101291.25;5054701;28;20085;-53
2021/10/07 04:53:32;;;;;;;14.25;8.90;;;;;;;10.46;100.00;101290.50;5056415;28;20075;-54
2021/10/07 04:55:58;;;;;;;12.88;9.05;;;;;;;10.41;100.00;101291.53;5061141;28;20044;-54
2021/10/07 04:58:25;;;;;;;12.68;8.88;;;;;;;10.39;100.00;101299.53;5058019;28;20078;-58
2021/10/07 05:00:52;;;;;;;12.52;9.23;;;;;;;10.41;100.00;101308.31;5066375;28;20040;-52
2021/10/07 05:03:19;;;;;;;13.65;9.25;;;;;;;10.38;100.00;101311.06;5058196;28;20044;-54
2021/10/07 05:05:45;;;;;;;13.85;9.65;;;;;;;10.36;100.00;101307.59;5065162;28;20052;-52
2021/10/07 05:08:12;;;;;;;15.82;9.52;;;;;;;10.35;100.00;101329.69;5061915;28;20064;-52
2021/10/07 05:10:39;;;;;;;13.98;9.15;;;;;;;10.35;100.00;101331.47;5062005;28;20045;-55
2021/10/07 05:13:06;;;;;;;15.63;10.20;;;;;;;10.34;100.00;101340.31;5054383;28;20044;-53
2021/10/07 05:15:33;;;;;;;13.63;10.13;;;;;;;10.35;100.00;101342.94;5058799;28;20048;-54
2021/10/07 05:17:59;;;;;;;12.35;9.60;;;;;;;10.35;100.00;101337.63;5055367;28;20131;-53
2021/10/07 05:20:27;;;;;;;17.05;10.10;;;;;;;10.41;100.00;101344.50;5060828;28;20079;-53
2021/10/07 05:22:53;;;;;;;13.32;9.80;;;;;;;10.43;100.00;101342.69;5056979;28;20048;-56
2021/10/07 05:25:20;;;;;;;16.05;9.93;;;;;;;10.43;100.00;101350.63;5064975;28;20056;-54
2021/10/07 05:27:47;;;;;;;13.55;9.55;;;;;;;10.44;100.00;101355.00;5058985;28;20056;-54
2021/10/07 05:30:14;;;;;;;14.82;9.52;;;;;;;10.37;100.00;101343.75;5054792;28;20063;-53
2021/10/07 05:32:41;;;;;;;12.23;8.93;;;;;;;10.42;100.00;101351.53;5056497;28;20055;-58
2021/10/07 05:35:08;;;;;;;13.95;9.38;;;;;;;10.42;100.00;101351.53;5059046;28;20047;-54
2021/10/07 05:37:34;;;;;;;12.82;9.68;;;;;;;10.45;100.00;101357.59;5058279;28;20053;-52
2021/10/07 05:40:01;;;;;;;15.73;10.32;;;;;;;10.45;100.00;101369.97;5062210;28;20036;-52
2021/10/07 05:42:27;;;;;;;15.75;9.60;;;;;;;10.45;100.00;101369.97;5060034;28;20087;-53
2021/10/07 05:44:54;;;;;;;14.77;11.13;;;;;;;10.46;100.00;101369.06;5054166;28;20067;-52
2021/10/07 05:47:20;;;;;;;14.80;9.80;;;;;;;10.48;100.00;101376.06;5056117;28;20686;-53
2021/10/07 05:49:47;;;;;;;14.73;10.10;;;;;;;10.52;100.00;101384.78;5054679;28;20072;-54
2021/10/07 05:52:13;;;;;;;15.20;10.18;;;;;;;10.54;100.00;101385.59;5051195;28;20143;-53
2021/10/07 05:54:40;;;;;;;13.10;9.30;;;;;;;10.59;100.00;101383.66;5059744;28;20048;-52
2021/10/07 05:57:06;;;;;;;15.85;9.55;;;;;;;10.64;100.00;101383.53;5060670;28;20540;-53
2021/10/07 05:59:33;;;;;;;15.35;9.77;;;;;;;10.67;100.00;101392.25;5053166;28;20052;-54
2021/10/07 06:01:59;;;;;;;23.67;10.57;;;;;;;11.02;100.00;101388.44;5055643;28;20719;-51
2021/10/07 06:04:26;;;;;;;18.02;9.38;;;;;;;11.14;100.00;101380.09;5055757;28;20052;-52
2021/10/07 06:06:52;;;;;;;12.43;9.48;;;;;;;11.09;100.00;101386.47;5059683;28;20410;-53
2021/10/07 06:09:19;;;;;;;14.27;10.02;;;;;;;10.99;100.00;101391.22;5056433;28;20053;-53
2021/10/07 06:11:48;;;;;;;13.73;9.07;;;;;;;11.06;100.00;101391.84;5039020;28;20080;-54
2021/10/07 06:14:18;;;;;;;14.25;8.93;;;;;;;11.09;100.00;101394.41;5048264;28;20044;-54
2021/10/07 06:16:46;;;;;;;15.48;8.98;;;;;;;11.09;100.00;101399.72;5054960;28;20056;-53
2021/10/07 06:19:17;;;;;;;16.02;10.90;;;;;;;11.15;100.00;101399.53;5054677;28;20459;-57
2021/10/07 06:21:44;;;;;;;17.02;10.55;;;;;;;11.17;100.00;101403.88;5056385;28;20045;-52
2021/10/07 06:24:10;;;;;;;15.27;10.70;;;;;;;11.19;100.00;101403.78;5054785;28;20637;-55
2021/10/07 06:26:40;;;;;;;13.32;9.93;;;;;;;11.25;100.00;101401.81;5057782;28;20130;-53
2021/10/07 06:29:07;;;;;;;18.27;10.17;;;;;;;11.17;100.00;101389.75;5058673;28;20354;-54
2021/10/07 06:31:34;;;;;;;13.82;9.40;;;;;;;11.30;100.00;101411.41;5059859;28;20052;-53
2021/10/07 06:34:00;;;;;;;15.98;8.70;;;;;;;11.29;100.00;101418.47;5060333;28;20059;-53
2021/10/07 06:36:27;;;;;;;24.48;9.80;;;;;;;11.31;100.00;101429.03;5055662;28;20044;-53
2021/10/07 06:38:54;;;;;;;23.15;10.60;;;;;;;11.34;100.00;101434.22;5056057;28;20560;-54
2021/10/07 06:41:22;;;;;;;32.63;11.70;;;;;;;11.43;100.00;101439.22;5054917;28;20599;-52
2021/10/07 06:43:49;;;;;;;36.08;12.57;;;;;;;11.58;100.00;101438.69;5049433;28;20055;-54
2021/10/07 06:46:16;;;;;;;22.40;12.68;;;;;;;11.56;100.00;101425.50;5054574;28;20048;-55
2021/10/07 06:48:42;;;;;;;20.58;13.32;;;;;;;11.73;100.00;101445.25;5053843;28;20090;-54
2021/10/07 06:51:09;;;;;;;18.25;12.95;;;;;;;11.74;100.00;101449.66;5052271;28;20040;-56
2021/10/07 06:53:39;;;;;;;27.45;13.75;;;;;;;11.75;100.00;101451.38;5056450;28;20056;-54
2021/10/07 06:56:06;;;;;;;18.63;12.52;;;;;;;11.78;100.00;101457.50;5055682;28;20525;-55
2021/10/07 06:58:33;;;;;;;19.40;12.90;;;;;;;11.74;100.00;101462.91;5052667;28;20052;-54
2021/10/07 07:01:00;;;;;;;26.65;13.07;;;;;;;11.74;100.00;101474.41;5056856;28;20426;-53
2021/10/07 07:03:27;;;;;;;39.45;15.13;;;;;;;11.78;100.00;101468.09;5054890;28;20044;-54
2021/10/07 07:05:53;;;;;;;23.38;15.40;;;;;;;11.95;100.00;101464.88;5033239;28;20049;-54
2021/10/07 07:08:20;;;;;;;20.13;13.82;;;;;;;11.95;100.00;101472.81;5033597;28;20048;-54
2021/10/07 07:10:47;;;;;;;22.27;14.82;;;;;;;11.97;100.00;101484.22;5036897;28;20052;-54
2021/10/07 07:13:16;;;;;;;146.38;22.80;;;;;;;11.97;100.00;101494.84;5031989;28;20045;-54
2021/10/07 07:15:42;;;;;;;98.30;20.10;;;;;;;12.23;100.00;101493.94;5037842;28;20047;-53
2021/10/07 07:18:09;;;;;;;32.65;14.75;;;;;;;12.31;100.00;101491.84;5036578;28;20049;-52
2021/10/07 07:20:35;;;;;;;32.22;15.00;;;;;;;12.28;99.33;101490.16;5036928;28;20410;-53
2021/10/07 07:23:02;;;;;;;22.73;14.77;;;;;;;12.41;97.03;101495.91;5039771;28;20059;-53
2021/10/07 07:25:28;;;;;;;62.25;17.10;;;;;;;12.46;97.51;101493.06;5040327;28;20076;-55
2021/10/07 07:27:55;;;;;;;23.33;14.95;;;;;;;12.45;94.22;101496.66;5043922;28;20051;-53
2021/10/07 07:30:22;;;;;;;25.10;16.83;;;;;;;12.44;93.77;101494.91;5045642;28;20055;-52
2021/10/07 07:32:48;;;;;;;64.30;19.38;;;;;;;12.40;94.93;101502.16;5047496;28;20048;-54
2021/10/07 07:35:15;;;;;;;30.67;17.88;;;;;;;12.43;95.12;101503.84;5043104;28;20055;-52
2021/10/07 07:37:41;;;;;;;28.35;17.65;;;;;;;12.37;95.57;101486.31;5043913;28;20045;-53
2021/10/07 07:40:09;;;;;;;26.30;17.73;;;;;;;12.57;95.18;101499.75;5042813;28;20040;-54
2021/10/07 07:42:36;;;;;;;27.42;17.88;;;;;;;12.68;93.79;101504.63;5039161;28;20049;-54
2021/10/07 07:45:05;;;;;;;26.02;16.98;;;;;;;12.67;91.94;101504.69;5038962;28;20041;-53
2021/10/07 07:47:52;;;;;;;27.23;17.27;;;;;;;12.58;92.30;101504.13;5036725;28;20060;-54
2021/10/07 07:50:22;;;;;;;24.63;17.33;;;;;;;12.57;92.63;101498.88;5041237;28;20053;-53
2021/10/07 07:52:51;;;;;;;27.35;17.70;;;;;;;12.60;93.33;101507.56;5036697;28;20052;-53
2021/10/07 07:55:21;;;;;;;53.63;27.13;;;;;;;12.70;93.46;101512.56;5039599;28;20045;-54
2021/10/07 07:57:47;;;;;;;24.05;17.38;;;;;;;12.85;90.58;101511.97;5041457;28;20542;-52
2021/10/07 08:00:14;;;;;;;43.10;20.67;;;;;;;12.82;89.51;101517.41;5036770;28;20075;-58
2021/10/07 08:02:40;;;;;;;39.30;19.05;;;;;;;12.63;90.71;101501.28;5039108;28;20878;-53
2021/10/07 08:05:08;;;;;;;47.33;19.50;;;;;;;12.76;90.51;101521.16;5056002;28;20464;-54
2021/10/07 08:07:34;;;;;;;22.40;15.95;;;;;;;12.90;90.66;101523.31;5061313;28;20058;-53
2021/10/07 08:10:02;;;;;;;31.48;15.10;;;;;;;12.92;87.72;101522.28;5056888;28;20644;-53
2021/10/07 08:12:33;;;;;;;22.55;13.40;;;;;;;12.92;86.19;101522.28;5056257;28;20048;-54
2021/10/07 08:15:01;;;;;;;20.10;12.68;;;;;;;12.82;86.47;101520.91;5057812;28;20047;-53
2021/10/07 08:17:28;;;;;;;16.83;12.65;;;;;;;12.84;87.13;101531.50;5061977;28;20044;-54
2021/10/07 08:19:54;;;;;;;18.85;13.73;;;;;;;12.83;87.13;101530.63;5058968;28;20048;-53
2021/10/07 08:22:23;;;;;;;18.00;12.75;;;;;;;12.80;88.04;101536.06;5058964;28;20048;-53
2021/10/07 08:24:49;;;;;;;36.97;15.27;;;;;;;12.87;87.51;101529.59;5063131;28;20044;-54
2021/10/07 08:27:16;;;;;;;18.75;14.38;;;;;;;12.86;87.47;101538.50;5060583;28;20047;-55
2021/10/07 08:29:42;;;;;;;20.17;14.55;;;;;;;12.89;88.79;101535.72;5064644;28;20044;-54
2021/10/07 08:32:09;;;;;;;18.15;14.38;;;;;;;12.94;88.98;101528.41;5062372;28;20417;-54
2021/10/07 08:34:35;;;;;;;21.65;14.98;;;;;;;13.02;88.29;101537.91;5067432;28;20079;-54
2021/10/07 08:37:03;;;;;;;21.15;14.68;;;;;;;13.07;87.99;101542.09;5067964;28;20135;-53
2021/10/07 08:39:31;;;;;;;22.55;17.95;;;;;;;13.11;88.43;101546.38;5065842;28;20045;-53
2021/10/07 08:41:57;;;;;;;31.35;23.17;;;;;;;13.15;88.91;101529.41;5062870;28;20051;-53
2021/10/07 08:44:24;;;;;;;23.52;17.45;;;;;;;13.21;88.65;101529.19;5062443;28;20048;-54
2021/10/07 08:46:53;;;;;;;34.75;17.40;;;;;;;13.30;88.19;101536.78;5066376;28;20517;-52
2021/10/07 08:49:22;;;;;;;71.15;19.00;;;;;;;13.32;88.15;101529.59;5067979;28;20510;-55
2021/10/07 08:51:49;;;;;;;24.33;15.75;;;;;;;13.33;88.59;101533.13;5061542;28;20040;-55
2021/10/07 08:54:16;;;;;;;21.38;15.20;;;;;;;13.38;88.24;101528.47;5062813;28;20662;-55
2021/10/07 08:56:43;;;;;;;19.02;15.48;;;;;;;13.38;88.21;101539.13;5064694;28;20055;-52
2021/10/07 08:59:09;;;;;;;25.45;15.50;;;;;;;13.44;87.61;101530.03;5063878;28;20048;-53
2021/10/07 09:01:44;;;;;;;23.88;14.00;;;;;;;13.49;88.06;101526.25;5064915;28;20044;-55
2021/10/07 09:04:34;;;;;;;21.45;14.15;;;;;;;13.56;87.42;101526.84;5058789;28;20048;-54
2021/10/07 09:07:07;;;;;;;21.50;14.38;;;;;;;13.63;86.61;101533.66;5061389;28;20125;-53
2021/10/07 09:09:38;;;;;;;18.73;12.98;;;;;;;13.66;85.64;101531.75;5065029;28;20044;-54
2021/10/07 09:12:08;;;;;;;24.13;14.63;;;;;;;13.70;85.53;101545.78;5061493;28;20049;-53
2021/10/07 09:14:41;;;;;;;55.97;15.43;;;;;;;13.67;84.86;101546.81;5061557;28;20052;-53
2021/10/07 09:17:09;;;;;;;35.57;14.30;;;;;;;13.67;84.73;101546.81;5053403;28;20059;-53
2021/10/07 09:19:40;;;;;;;39.92;14.25;;;;;;;13.72;85.39;101533.28;5060654;28;20126;-53
2021/10/07 09:22:13;;;;;;;;;;;;;;;13.83;84.85;101548.81;5057157;28;20049;-53
2021/10/07 09:24:45;;;;;;;16.52;12.05;;;;;;;14.04;83.58;101542.56;5062497;28;19972;-53
2021/10/07 09:27:17;;;;;;;15.75;11.52;;;;;;;14.48;82.89;101539.78;5060205;28;20050;-55
2021/10/07 09:29:54;;;;;;;21.30;11.63;;;;;;;14.58;79.46;101544.63;5061575;28;20052;-54
2021/10/07 09:32:30;;;;;;;49.45;14.52;;;;;;;14.45;79.26;101543.47;5061695;28;20064;-53
2021/10/07 09:35:02;;;;;;;44.67;13.43;;;;;;;14.25;79.38;101551.44;5062982;28;20052;-55
2021/10/07 09:37:30;;;;;;;21.00;11.52;;;;;;;14.07;79.61;101545.09;5059702;28;20044;-53
2021/10/07 09:40:09;;;;;;;23.85;12.50;;;;;;;13.90;80.75;101552.94;5060234;28;20136;-53
2021/10/07 09:42:39;;;;;;;38.17;12.98;;;;;;;13.79;81.42;101563.19;5061650;28;20090;-52
2021/10/07 09:45:07;;;;;;;;;;;;;;;13.74;81.97;101555.38;5064998;28;20047;-52
2021/10/07 09:47:58;;;;;;;14.45;10.95;;;;;;;13.72;82.73;101551.91;5060521;28;19931;-54
2021/10/07 09:50:31;;;;;;;16.05;12.75;;;;;;;13.67;82.53;101561.91;5048295;28;20056;-54
2021/10/07 09:53:05;;;;;;;16.52;11.52;;;;;;;13.70;82.57;101559.09;5065479;28;20052;-56
2021/10/07 09:55:37;;;;;;;20.63;11.55;;;;;;;13.71;81.99;101552.84;5058555;28;20045;-53
2021/10/07 09:58:21;;;;;;;17.33;10.57;;;;;;;13.68;82.79;101548.53;5066011;28;20795;-54
2021/10/07 10:00:50;;;;;;;23.02;11.60;;;;;;;13.77;83.12;101544.59;5062785;28;20055;-53
2021/10/07 10:03:19;;;;;;;18.70;10.70;;;;;;;13.88;83.32;101544.16;5064456;28;20580;-55
2021/10/07 10:05:46;;;;;;;27.25;11.32;;;;;;;13.97;81.81;101551.75;5065749;28;20698;-53
2021/10/07 10:08:16;;;;;;;42.90;12.85;;;;;;;14.01;81.54;101556.00;5059256;28;20487;-55
2021/10/07 10:10:44;;;;;;;19.38;11.25;;;;;;;14.10;79.98;101552.97;5061614;28;20043;-52
2021/10/07 10:13:13;;;;;;;15.55;11.57;;;;;;;14.18;79.15;101558.81;5061374;28;20036;-53
2021/10/07 10:15:40;;;;;;;17.95;11.38;;;;;;;14.17;79.52;101561.53;5064674;28;20568;-53
2021/10/07 10:18:08;;;;;;;14.27;10.88;;;;;;;14.19;79.42;101565.88;5058617;28;20100;-54
2021/10/07 10:20:41;;;;;;;21.27;11.73;;;;;;;14.11;79.88;101564.50;5061910;28;20054;-54
2021/10/07 10:23:10;;;;;;;14.65;10.93;;;;;;;14.01;80.74;101561.31;5055771;28;20044;-53
2021/10/07 10:25:58;;;;;;;18.77;13.05;;;;;;;13.97;82.06;101567.75;5065409;28;20041;-54
2021/10/07 10:28:47;;;;;;;12.15;10.80;;;;;;;14.02;81.76;101571.91;5062822;28;20052;-53
2021/10/07 10:31:25;;;;;;;16.33;12.00;;;;;;;14.08;80.83;101560.16;5055685;28;20053;-54
2021/10/07 10:34:04;;;;;;;17.23;12.27;;;;;;;14.08;79.86;101562.81;5059106;28;20046;-53
2021/10/07 10:36:33;;;;;;;13.63;10.88;;;;;;;13.80;81.11;101548.94;5063147;28;20696;-53
2021/10/07 10:39:14;;;;;;;14.25;10.68;;;;;;;13.86;82.19;101581.47;5064541;28;20074;-52
2021/10/07 10:41:46;;;;;;;16.58;10.25;;;;;;;13.90;82.83;101583.09;5061265;28;20041;-53
2021/10/07 10:44:30;;;;;;;14.00;11.13;;;;;;;13.90;82.59;101579.56;5055145;28;20045;-52
2021/10/07 10:47:05;;;;;;;16.73;11.20;;;;;;;13.86;82.68;101585.94;5056246;28;20045;-54
2021/10/07 10:49:41;;;;;;;16.90;11.35;;;;;;;13.87;82.76;101590.34;5060152;28;20070;-51
2021/10/07 10:52:32;;;;;;;29.58;12.55;;;;;;;14.39;85.25;101581.88;5060125;28;20063;-52
2021/10/07 10:55:04;;;;;;;14.00;11.27;;;;;;;14.92;77.23;101586.63;5063264;28;20905;-53
2021/10/07 10:57:35;;;;;;;12.65;9.85;;;;;;;15.53;76.59;101586.38;5063203;28;20056;-52
2021/10/07 11:00:07;;;;;;;10.57;8.65;;;;;;;16.78;67.81;101586.22;5058374;28;20541;-51
2021/10/07 11:02:35;;;;;;;8.35;6.38;;;;;;;18.01;59.70;101575.69;5061970;28;20532;-52
2021/10/07 11:05:23;;;;;;;6.25;4.65;;;;;;;18.40;56.22;101582.31;5062495;28;20044;-54
2021/10/07 11:08:11;;;;;;;22.83;14.25;;;;;;;17.89;56.97;101587.13;5060813;28;20041;-53
2021/10/07 11:11:00;;;;;;;5.07;4.60;;;;;;;17.78;57.23;101587.78;5057296;28;20045;-52
2021/10/07 11:13:33;;;;;;;11.13;5.80;;;;;;;17.32;58.96;101593.97;5060151;28;20067;-51
2021/10/07 11:16:04;;;;;;;4.53;4.10;;;;;;;16.86;59.72;101572.41;5059648;28;20049;-53
2021/10/07 11:18:38;;;;;;;7.72;4.50;;;;;;;16.61;58.99;101588.03;5060217;28;20040;-53
2021/10/07 11:21:12;;;;;;;5.00;4.50;;;;;;;16.27;60.86;101589.78;5064680;28;20450;-51
2021/10/07 11:23:39;;;;;;;5.18;4.60;;;;;;;16.35;62.04;101594.75;5064479;28;20083;-53